04:25
Airports
History
Links
Donate
Help keep this website running!
PayPal
Bitcoin
Information on this page is community maintained and may be outdated or inaccurate and is intended for reference only or PC simulator navigating!
Always use approved charts for navigating.
1U0
Bear TrapUpdated 21-May-2014
Bear Trap (1U0)
Minidoka, Idaho, United States
4
Lat/Lng:42° 58' 31.2" N / 113° 21' 2.7" W
42.975333 / -113.35075
Elevation:4716'ft 1437mMSL
Declination:E016°
ID / ICAO:1U0
FAA:1U0
Runways:1
Longest:(06-24) 692.0m 2,270ft Grass
Distance To
Airport ID:
Nearby VORs <50NM
Nearby NDBs
Nearby WeatherUpdated 04-28-17 03:53 GMT
Nearby weather at KBYI, Burley Muni located 36.7 nautical miles from 1U0
Altimeter: 29.88
Visibility: 10.0 statute miles
Wind: 10 knots (210°)
Temp: 2°c 36°f
Humidity: 55.3%

METAR: KBYI 280353Z AUTO 21010KT 10SM CLR 02/M06 A2988 RMK AO2 SLP119 T00221061

(Powered by phpweather)
Runway 06 / 24
Dimensions:692 x 36.6m 2270' x 120'ft
Surface:Grass
Runway 06 [A]Runway 24 [B]
Heading:059°MH  075°TH239°MH   255°TH
Lat:
Lng:
42° 58' 26.98"N
113° 21' 16.75"W
42° 58' 32.35"N
113° 20' 47.28"W
Google Map
Nearby Airports
4 Coxs Well 17.9 NM
U48 NNE 20°
4 Laidlaw Corrals 19.8 NM
U99 WNW 282°
(U) Aberdeen Muni 24.1 NM
U36 E 98°
4 Hollow Top 26.9 NM
0U7 NNW 333°
(U) American Falls 29.3 NM
U01 ESE 114°
4 Big Southern Butte 34.9 NM
U46 NNE 25°
(U) Burley Muni 36.7 NM
KBYI (WX) SW 215°
VFR Chart
Flight Planning at SkyVector.com